Time;durP1;ratioP1;P1;durP2;ratioP2;P2;SDS_P1;SDS_P2;PMS_P1;PMS_P2;Temp;Humidity;BMP_temperature;BMP_pressure;BME280_temperature;BME280_humidity;BME280_pressure;Samples;Min_cycle;Max_cycle;Signal;HPM_P1;HPM_P2
2023/09/02 00:01:49;;;;;;;6.03;3.90;;;16.60;99.90;;;;;;5033113;28;20041;-75
2023/09/02 00:04:16;;;;;;;4.35;3.05;;;16.50;99.90;;;;;;5031021;28;20021;-75
2023/09/02 00:06:41;;;;;;;6.40;3.38;;;16.50;99.90;;;;;;5058317;22;20377;-70
2023/09/02 00:09:07;;;;;;;9.38;5.00;;;16.50;99.90;;;;;;5044458;28;20120;-69
2023/09/02 00:11:32;;;;;;;7.05;4.20;;;16.50;99.90;;;;;;5048642;28;20029;-71
2023/09/02 00:13:58;;;;;;;5.88;4.20;;;16.50;99.90;;;;;;5036085;28;20068;-72
2023/09/02 00:16:23;;;;;;;4.15;3.35;;;16.40;99.90;;;;;;5027253;28;20025;-72
2023/09/02 00:18:49;;;;;;;7.95;4.63;;;16.30;99.90;;;;;;5026283;28;20556;-72
2023/09/02 00:21:14;;;;;;;6.07;3.03;;;16.30;99.90;;;;;;5024279;28;20096;-72
2023/09/02 00:23:45;;;;;;;4.25;3.13;;;16.30;99.90;;;;;;5019348;28;20018;-72
2023/09/02 00:26:11;;;;;;;4.47;3.30;;;16.30;99.90;;;;;;5025081;28;20694;-72
2023/09/02 00:28:36;;;;;;;8.07;3.10;;;16.30;99.90;;;;;;5029895;28;20540;-73
2023/09/02 00:31:02;;;;;;;6.15;4.10;;;16.30;99.90;;;;;;5021171;28;20029;-72
2023/09/02 00:33:28;;;;;;;5.05;3.38;;;16.30;99.90;;;;;;5021808;28;20052;-72
2023/09/02 00:35:53;;;;;;;7.95;3.58;;;16.30;99.90;;;;;;5024928;28;20036;-72
2023/09/02 00:38:19;;;;;;;5.00;3.42;;;16.30;99.90;;;;;;5020350;28;20400;-72
2023/09/02 00:40:54;;;;;;;7.43;3.20;;;16.30;99.90;;;;;;5021709;28;20032;-72
2023/09/02 00:43:20;;;;;;;6.05;4.38;;;16.40;99.90;;;;;;5029548;28;20018;-72
2023/09/02 00:45:45;;;;;;;12.23;6.93;;;16.40;99.90;;;;;;5015696;28;20034;-72
2023/09/02 00:48:11;;;;;;;11.15;6.43;;;16.40;99.90;;;;;;5022216;28;20465;-72
2023/09/02 00:50:37;;;;;;;7.55;5.93;;;16.40;99.90;;;;;;5023253;28;20053;-72
2023/09/02 00:53:03;;;;;;;9.10;6.30;;;16.40;99.90;;;;;;5029162;28;20056;-72
2023/09/02 00:55:29;;;;;;;8.63;6.10;;;16.30;99.90;;;;;;5025694;28;20026;-72
2023/09/02 00:57:56;;;;;;;8.32;5.93;;;16.30;99.90;;;;;;5022149;28;20450;-69
2023/09/02 01:00:22;;;;;;;7.32;6.05;;;16.30;99.90;;;;;;5020020;28;20025;-70
2023/09/02 01:02:49;;;;;;;5.90;4.82;;;16.30;99.90;;;;;;5025106;28;20501;-72
2023/09/02 01:05:15;;;;;;;5.72;4.70;;;16.30;99.90;;;;;;5025561;28;20025;-72
2023/09/02 01:07:43;;;;;;;7.25;4.30;;;16.30;99.90;;;;;;5025272;28;20033;-72
2023/09/02 01:10:09;;;;;;;5.28;4.45;;;16.30;99.90;;;;;;5014110;28;20029;-72
2023/09/02 01:12:34;;;;;;;6.05;4.90;;;16.30;99.90;;;;;;5019131;28;20344;-72
2023/09/02 01:15:00;;;;;;;7.18;6.45;;;16.30;99.90;;;;;;5026936;28;20025;-72
2023/09/02 01:17:26;;;;;;;9.77;8.40;;;16.30;99.90;;;;;;5017622;28;20059;-70
2023/09/02 01:19:56;;;;;;;11.30;9.40;;;16.20;99.90;;;;;;5033415;28;20040;-72
2023/09/02 01:22:33;;;;;;;26.35;17.38;;;16.20;99.90;;;;;;5031853;28;20029;-72
2023/09/02 01:25:11;;;;;;;10.30;7.65;;;16.20;99.90;;;;;;5016463;28;20101;-72
2023/09/02 01:27:42;;;;;;;12.13;7.90;;;16.20;99.90;;;;;;5026257;28;20369;-70
2023/09/02 01:30:23;;;;;;;21.58;15.82;;;16.20;99.90;;;;;;5011000;28;20034;-71
2023/09/02 01:32:53;;;;;;;16.17;12.82;;;16.20;99.90;;;;;;5013904;28;20056;-70
2023/09/02 01:35:27;;;;;;;10.00;7.72;;;16.10;99.90;;;;;;5015119;28;20025;-71
2023/09/02 01:37:55;;;;;;;8.30;5.78;;;16.10;99.90;;;;;;5031276;28;20507;-71
2023/09/02 01:40:26;;;;;;;10.52;6.07;;;16.10;99.90;;;;;;5020256;28;20384;-71
2023/09/02 01:42:55;;;;;;;13.55;10.23;;;16.10;99.90;;;;;;5013211;28;20366;-71
2023/09/02 01:45:22;;;;;;;7.32;5.50;;;16.10;99.90;;;;;;5019668;28;20033;-71
2023/09/02 01:47:49;;;;;;;13.60;9.60;;;16.10;99.90;;;;;;5012964;28;20056;-71
2023/09/02 01:50:17;;;;;;;7.75;4.93;;;16.00;99.90;;;;;;5016051;28;20045;-71
2023/09/02 01:52:43;;;;;;;9.13;6.65;;;15.90;99.90;;;;;;5029452;28;20030;-71
2023/09/02 01:55:09;;;;;;;6.63;4.57;;;15.90;99.90;;;;;;5014414;28;20034;-71
2023/09/02 01:57:36;;;;;;;7.10;5.60;;;15.80;99.90;;;;;;5032738;28;20456;-71
2023/09/02 02:00:02;;;;;;;5.07;4.43;;;15.80;99.90;;;;;;5013633;28;20033;-71
2023/09/02 02:02:28;;;;;;;6.57;4.50;;;15.80;99.90;;;;;;5016092;28;20392;-71
2023/09/02 02:04:58;;;;;;;10.00;4.22;;;15.80;99.90;;;;;;5032794;28;20021;-71
2023/09/02 02:07:28;;;;;;;8.27;4.85;;;15.80;99.90;;;;;;5019845;28;20457;-71
2023/09/02 02:09:58;;;;;;;4.80;3.22;;;15.80;99.90;;;;;;5030631;28;20120;-71
2023/09/02 02:12:25;;;;;;;5.15;4.53;;;15.80;99.90;;;;;;5019964;28;20041;-71
2023/09/02 02:14:51;;;;;;;5.88;5.22;;;15.80;99.90;;;;;;5013614;28;20234;-71
2023/09/02 02:17:16;;;;;;;5.93;4.60;;;15.80;99.90;;;;;;5009110;28;20014;-71
2023/09/02 02:19:43;;;;;;;6.47;5.05;;;15.80;99.90;;;;;;5018241;28;20018;-71
2023/09/02 02:22:09;;;;;;;9.02;4.43;;;15.90;99.90;;;;;;5032068;28;20033;-71
2023/09/02 02:24:35;;;;;;;5.47;4.22;;;15.80;99.90;;;;;;5025687;28;20064;-71
2023/09/02 02:27:02;;;;;;;4.68;3.97;;;15.80;99.90;;;;;;5032250;28;20412;-71
2023/09/02 02:29:27;;;;;;;7.35;3.65;;;15.80;99.90;;;;;;5017856;28;20538;-71
2023/09/02 02:31:54;;;;;;;6.18;4.68;;;15.80;99.90;;;;;;5018262;28;20029;-72
2023/09/02 02:34:19;;;;;;;4.03;3.45;;;15.80;99.90;;;;;;5020347;28;20026;-71
2023/09/02 02:36:45;;;;;;;4.85;3.35;;;15.90;99.90;;;;;;5022328;28;20511;-71
2023/09/02 02:39:10;;;;;;;4.68;3.33;;;15.80;99.90;;;;;;5031806;28;20168;-72
2023/09/02 02:41:36;;;;;;;5.00;3.67;;;15.80;99.90;;;;;;5032089;28;20053;-72
2023/09/02 02:44:02;;;;;;;5.53;3.20;;;15.90;99.90;;;;;;5032100;28;20024;-72
2023/09/02 02:46:28;;;;;;;3.22;2.92;;;15.80;99.90;;;;;;5028058;28;20484;-72
2023/09/02 02:48:53;;;;;;;4.28;3.75;;;15.80;99.90;;;;;;5016703;28;20025;-72
2023/09/02 02:51:19;;;;;;;6.28;3.22;;;15.80;99.90;;;;;;5019685;28;20025;-72
2023/09/02 02:53:45;;;;;;;4.05;3.63;;;15.80;99.90;;;;;;5018299;28;20080;-72
2023/09/02 02:56:10;;;;;;;4.63;3.75;;;15.80;99.90;;;;;;5031565;28;20025;-72
2023/09/02 02:58:36;;;;;;;4.15;2.95;;;15.80;99.90;;;;;;5026623;28;20040;-72
2023/09/02 03:01:06;;;;;;;4.38;3.55;;;15.80;99.90;;;;;;5014607;28;20433;-72
2023/09/02 03:03:33;;;;;;;2.70;2.42;;;15.80;99.90;;;;;;5021078;28;20032;-72
2023/09/02 03:06:03;;;;;;;5.35;3.10;;;15.80;99.90;;;;;;5015901;28;20242;-72
2023/09/02 03:08:30;;;;;;;4.45;2.95;;;15.80;99.90;;;;;;5010591;28;20037;-72
2023/09/02 03:10:59;;;;;;;3.17;2.72;;;15.80;99.90;;;;;;5020089;28;20061;-72
2023/09/02 03:13:25;;;;;;;3.42;2.92;;;15.70;99.90;;;;;;5023001;28;20029;-72
2023/09/02 03:15:53;;;;;;;3.13;2.80;;;15.70;99.90;;;;;;5023147;28;20068;-72
2023/09/02 03:18:19;;;;;;;4.28;3.00;;;15.70;99.90;;;;;;5013488;28;20029;-72
2023/09/02 03:20:45;;;;;;;2.75;2.45;;;15.70;99.90;;;;;;5031232;28;20056;-72
2023/09/02 03:23:10;;;;;;;5.03;3.40;;;15.70;99.90;;;;;;5013042;28;20061;-72
2023/09/02 03:25:37;;;;;;;3.17;2.78;;;15.70;99.90;;;;;;5014887;28;20536;-72
2023/09/02 03:28:03;;;;;;;3.60;3.25;;;15.70;99.90;;;;;;5019521;28;20018;-72
2023/09/02 03:30:29;;;;;;;2.97;2.78;;;15.70;99.90;;;;;;5020276;28;20519;-71
2023/09/02 03:32:55;;;;;;;3.22;2.60;;;15.70;99.90;;;;;;5014919;28;20034;-72
2023/09/02 03:35:20;;;;;;;3.13;2.75;;;15.60;99.90;;;;;;5021577;28;20053;-72
2023/09/02 03:37:46;;;;;;;4.53;3.17;;;15.70;99.90;;;;;;5013675;28;20100;-72
2023/09/02 03:40:11;;;;;;;5.97;4.50;;;15.60;99.90;;;;;;5009356;28;20037;-72
2023/09/02 03:42:37;;;;;;;6.68;4.55;;;15.60;99.90;;;;;;5030878;28;20026;-72
2023/09/02 03:45:03;;;;;;;2.90;2.67;;;15.60;99.90;;;;;;5026312;28;20033;-72
2023/09/02 03:47:32;;;;;;;5.35;3.38;;;15.60;99.90;;;;;;5022133;28;20033;-72
2023/09/02 03:50:04;;;;;;;5.30;4.78;;;15.50;99.90;;;;;;5023617;28;20021;-72
2023/09/02 03:52:29;;;;;;;5.30;3.53;;;15.50;99.90;;;;;;5024586;28;20022;-72
2023/09/02 03:54:55;;;;;;;4.38;3.90;;;15.50;99.90;;;;;;5022972;28;20026;-71
2023/09/02 03:57:20;;;;;;;8.57;6.32;;;15.50;99.90;;;;;;5028789;28;20026;-72
2023/09/02 03:59:46;;;;;;;6.22;4.25;;;15.50;99.90;;;;;;5029727;28;20057;-72
2023/09/02 04:02:11;;;;;;;3.63;2.97;;;15.50;99.90;;;;;;5022893;28;20504;-72
2023/09/02 04:04:37;;;;;;;6.63;3.88;;;15.50;99.90;;;;;;5034872;28;20127;-72
2023/09/02 04:07:03;;;;;;;5.40;4.75;;;15.50;99.90;;;;;;5031028;28;20037;-72
2023/09/02 04:09:28;;;;;;;5.95;4.88;;;15.50;99.90;;;;;;5034728;28;20036;-72
2023/09/02 04:11:54;;;;;;;9.40;5.20;;;15.40;99.90;;;;;;5027145;28;20435;-72
2023/09/02 04:14:20;;;;;;;5.35;3.50;;;15.40;99.90;;;;;;5025003;28;20030;-73
2023/09/02 04:16:45;;;;;;;3.65;3.17;;;15.50;99.90;;;;;;5021141;28;20034;-72
2023/09/02 04:19:11;;;;;;;5.20;3.70;;;15.40;99.90;;;;;;5023245;28;20045;-71
2023/09/02 04:21:36;;;;;;;4.32;3.92;;;15.40;99.90;;;;;;5031766;28;20160;-72
2023/09/02 04:24:02;;;;;;;11.77;8.80;;;15.40;99.90;;;;;;5033337;28;20026;-70
2023/09/02 04:26:28;;;;;;;7.43;3.97;;;15.40;99.90;;;;;;5034616;28;20111;-71
2023/09/02 04:28:56;;;;;;;3.88;3.33;;;15.40;99.90;;;;;;5026150;28;20551;-72
2023/09/02 04:31:22;;;;;;;4.70;3.60;;;15.40;99.90;;;;;;5021319;28;20042;-71
2023/09/02 04:33:48;;;;;;;7.07;3.78;;;15.40;99.90;;;;;;5034342;28;20632;-72
2023/09/02 04:36:13;;;;;;;5.13;4.07;;;15.50;99.90;;;;;;5020676;28;20025;-71
2023/09/02 04:38:39;;;;;;;6.47;3.65;;;15.50;99.90;;;;;;5022834;28;20077;-72
2023/09/02 04:41:06;;;;;;;3.95;3.55;;;15.60;99.90;;;;;;5021919;28;20041;-71
2023/09/02 04:43:32;;;;;;;5.55;3.78;;;15.60;99.90;;;;;;5033920;28;20029;-71
2023/09/02 04:46:03;;;;;;;3.92;3.53;;;15.70;99.90;;;;;;5024529;28;20022;-72
2023/09/02 04:48:29;;;;;;;6.60;2.75;;;15.60;99.90;;;;;;5032169;28;20057;-72
2023/09/02 04:50:56;;;;;;;6.18;3.58;;;15.70;99.90;;;;;;5028183;28;20030;-72
2023/09/02 04:53:22;;;;;;;6.00;3.53;;;15.70;99.90;;;;;;5025443;28;20037;-72
2023/09/02 04:55:49;;;;;;;5.25;2.50;;;15.70;99.90;;;;;;5034051;28;20029;-72
2023/09/02 04:58:16;;;;;;;3.60;3.17;;;15.70;99.90;;;;;;5033837;28;20044;-72
2023/09/02 05:00:42;;;;;;;3.78;3.15;;;15.70;99.90;;;;;;5020886;28;20121;-72
2023/09/02 05:03:08;;;;;;;3.00;2.70;;;15.70;99.90;;;;;;5025071;28;20041;-72
2023/09/02 05:05:34;;;;;;;5.90;3.22;;;15.70;99.90;;;;;;5026128;28;20033;-72
2023/09/02 05:08:00;;;;;;;3.67;2.53;;;15.70;99.90;;;;;;5021028;28;20104;-72
2023/09/02 05:10:26;;;;;;;5.97;3.10;;;15.70;99.90;;;;;;5020440;28;20034;-72
2023/09/02 05:12:52;;;;;;;5.13;2.88;;;15.70;99.90;;;;;;5022142;28;20022;-72
2023/09/02 05:15:18;;;;;;;4.72;2.40;;;15.70;99.90;;;;;;5021509;28;20116;-72
2023/09/02 05:17:43;;;;;;;5.60;2.95;;;15.70;99.90;;;;;;5013505;28;20551;-73
2023/09/02 05:20:10;;;;;;;5.82;2.58;;;15.80;99.90;;;;;;5029285;28;20025;-72
2023/09/02 05:22:35;;;;;;;4.93;2.38;;;15.70;99.90;;;;;;5021590;28;20038;-72
2023/09/02 05:25:02;;;;;;;5.10;2.88;;;15.80;99.90;;;;;;5020381;28;20032;-72
2023/09/02 05:27:28;;;;;;;3.35;2.65;;;15.80;99.90;;;;;;5036498;28;20028;-72
2023/09/02 05:29:54;;;;;;;4.35;2.40;;;15.80;99.90;;;;;;5032886;28;20376;-72
2023/09/02 05:32:19;;;;;;;5.15;2.28;;;15.80;99.90;;;;;;5012191;28;20026;-72
2023/09/02 05:34:45;;;;;;;6.63;3.30;;;15.80;99.90;;;;;;5025136;28;20028;-72
2023/09/02 05:37:11;;;;;;;7.00;3.72;;;15.90;99.90;;;;;;5026582;28;20490;-72
2023/09/02 05:39:36;;;;;;;6.30;3.15;;;15.80;99.90;;;;;;5032705;28;20112;-72
2023/09/02 05:42:02;;;;;;;6.00;2.88;;;15.90;99.90;;;;;;5032927;28;20049;-73
2023/09/02 05:44:28;;;;;;;2.97;2.67;;;15.90;99.90;;;;;;5030344;28;20048;-72
2023/09/02 05:46:54;;;;;;;4.85;3.70;;;15.90;99.90;;;;;;5009796;28;20030;-72
2023/09/02 05:49:19;;;;;;;4.63;3.65;;;16.00;99.90;;;;;;5020428;28;20022;-73
2023/09/02 05:51:45;;;;;;;5.72;3.75;;;16.00;99.90;;;;;;5026959;28;20104;-72
2023/09/02 05:54:10;;;;;;;4.00;3.17;;;16.10;99.90;;;;;;5019125;28;20476;-73
2023/09/02 05:56:36;;;;;;;7.20;4.43;;;16.20;99.90;;;;;;5013922;28;21226;-72
2023/09/02 05:59:02;;;;;;;5.20;4.18;;;16.10;99.90;;;;;;5010452;28;20029;-72
2023/09/02 06:01:28;;;;;;;3.80;3.50;;;16.20;99.90;;;;;;5008543;28;20032;-72
2023/09/02 06:03:54;;;;;;;4.22;3.78;;;16.20;99.90;;;;;;5005076;28;20465;-72
2023/09/02 06:06:19;;;;;;;4.45;3.35;;;16.20;99.90;;;;;;5034555;23;20056;-73
2023/09/02 06:08:45;;;;;;;7.68;4.13;;;16.30;99.90;;;;;;5051530;28;20033;-74
2023/09/02 06:11:10;;;;;;;3.97;3.40;;;16.30;99.90;;;;;;5050962;28;20039;-74
2023/09/02 06:13:36;;;;;;;3.42;3.13;;;16.40;99.90;;;;;;5058434;28;20095;-74
2023/09/02 06:16:04;;;;;;;3.88;3.42;;;16.40;99.90;;;;;;5052595;28;20124;-74
2023/09/02 06:18:30;;;;;;;4.55;3.50;;;16.40;99.90;;;;;;5054087;28;20020;-74
2023/09/02 06:20:56;;;;;;;6.22;3.88;;;16.40;99.90;;;;;;5056184;28;20036;-74
2023/09/02 06:23:24;;;;;;;7.28;4.20;;;16.60;99.90;;;;;;5055962;28;20017;-74
2023/09/02 06:25:57;;;;;;;4.63;3.42;;;16.60;99.90;;;;;;5047711;28;20463;-74
2023/09/02 06:28:23;;;;;;;7.47;3.92;;;16.70;99.90;;;;;;5050696;28;20033;-73
2023/09/02 06:30:49;;;;;;;3.95;3.55;;;16.80;99.90;;;;;;5050133;28;20440;-74
2023/09/02 06:33:16;;;;;;;6.30;4.30;;;16.90;99.90;;;;;;5052595;28;20112;-74
2023/09/02 06:35:42;;;;;;;9.48;4.13;;;17.10;99.90;;;;;;5050363;28;20059;-74
2023/09/02 06:38:07;;;;;;;5.88;4.30;;;17.20;99.90;;;;;;5060277;28;20036;-75
2023/09/02 06:40:33;;;;;;;5.25;4.15;;;17.30;99.90;;;;;;5067684;28;20021;-75
2023/09/02 06:42:58;;;;;;;7.18;3.40;;;17.40;99.90;;;;;;5066176;28;20055;-75
2023/09/02 06:45:25;;;;;;;5.35;3.90;;;17.40;99.90;;;;;;5058423;28;20020;-75
2023/09/02 06:47:51;;;;;;;5.50;3.88;;;17.50;99.90;;;;;;5067284;28;20107;-74
2023/09/02 06:50:16;;;;;;;4.68;3.38;;;17.60;99.90;;;;;;5059514;28;20143;-74
2023/09/02 06:52:42;;;;;;;5.45;4.93;;;17.70;99.90;;;;;;5061946;28;20035;-73
2023/09/02 06:55:08;;;;;;;8.30;5.93;;;17.70;99.90;;;;;;5062993;28;20024;-73
2023/09/02 06:57:33;;;;;;;4.28;3.70;;;18.00;99.90;;;;;;5071244;28;20020;-73
2023/09/02 06:59:59;;;;;;;6.70;5.38;;;18.30;99.90;;;;;;5058143;28;20013;-73
2023/09/02 07:02:24;;;;;;;5.18;4.22;;;18.50;99.90;;;;;;5048273;28;20064;-73
2023/09/02 07:04:50;;;;;;;19.92;12.15;;;18.60;99.90;;;;;;5058011;28;20112;-73
2023/09/02 07:07:16;;;;;;;8.25;5.22;;;18.60;99.90;;;;;;5066876;28;20035;-73
2023/09/02 07:09:41;;;;;;;13.02;9.93;;;18.70;99.90;;;;;;5049521;28;20112;-72
2023/09/02 07:12:07;;;;;;;8.15;6.88;;;18.90;99.90;;;;;;5051204;28;20536;-72
2023/09/02 07:14:32;;;;;;;5.03;4.45;;;19.00;99.90;;;;;;5039362;28;20108;-72
2023/09/02 07:16:58;;;;;;;4.80;4.03;;;19.10;99.90;;;;;;5047389;28;20475;-73
2023/09/02 07:19:24;;;;;;;4.93;4.20;;;19.20;99.90;;;;;;5058840;28;20060;-72
2023/09/02 07:21:50;;;;;;;6.78;5.38;;;19.30;99.90;;;;;;5053516;28;20048;-72
2023/09/02 07:24:15;;;;;;;5.70;4.07;;;19.50;99.90;;;;;;5050860;28;20048;-73
2023/09/02 07:26:41;;;;;;;4.35;3.38;;;19.60;99.90;;;;;;5053532;28;20036;-72
2023/09/02 07:29:06;;;;;;;9.32;5.30;;;19.70;99.90;;;;;;5053373;28;20100;-72
2023/09/02 07:31:32;;;;;;;7.47;5.15;;;19.70;99.90;;;;;;5043285;28;20033;-72
2023/09/02 07:33:58;;;;;;;16.23;6.47;;;19.70;99.90;;;;;;5040796;28;20064;-73
2023/09/02 07:36:23;;;;;;;9.25;4.90;;;19.80;99.90;;;;;;5037226;28;20043;-72
2023/09/02 07:38:52;;;;;;;7.93;4.75;;;19.80;99.90;;;;;;5039468;28;20614;-75
2023/09/02 07:41:17;;;;;;;6.45;4.97;;;19.70;99.90;;;;;;5041209;28;20025;-76
2023/09/02 07:43:43;;;;;;;8.57;6.18;;;19.70;99.90;;;;;;5041204;28;20036;-76
2023/09/02 07:46:11;;;;;;;8.70;4.88;;;19.70;99.90;;;;;;5038404;28;20144;-75
2023/09/02 07:48:37;;;;;;;9.10;5.03;;;19.70;99.90;;;;;;5041251;28;20762;-75
2023/09/02 07:51:02;;;;;;;10.23;5.82;;;19.80;99.90;;;;;;5040897;28;20056;-75
2023/09/02 07:53:29;;;;;;;7.55;4.70;;;19.90;99.90;;;;;;5042818;28;20456;-74
2023/09/02 07:55:55;;;;;;;5.20;4.40;;;19.90;99.90;;;;;;5040041;28;20025;-73
2023/09/02 07:58:20;;;;;;;6.82;3.45;;;19.90;99.90;;;;;;5038702;28;20044;-74
2023/09/02 08:00:46;;;;;;;7.15;4.03;;;20.00;99.90;;;;;;5037427;28;20036;-73
2023/09/02 08:03:11;;;;;;;6.53;3.80;;;20.00;99.90;;;;;;5038827;28;20024;-74
2023/09/02 08:05:41;;;;;;;9.95;4.43;;;20.10;99.90;;;;;;5040709;28;20167;-73
2023/09/02 08:08:07;;;;;;;4.32;3.17;;;20.00;99.90;;;;;;5039064;28;20067;-74
2023/09/02 08:10:33;;;;;;;5.32;3.13;;;20.00;99.90;;;;;;5039523;28;20074;-73
2023/09/02 08:12:59;;;;;;;6.75;3.03;;;19.90;99.90;;;;;;5039398;28;20025;-73
2023/09/02 08:15:25;;;;;;;7.88;2.80;;;19.90;99.90;;;;;;5042543;28;20033;-73
2023/09/02 08:17:51;;;;;;;6.38;3.38;;;20.10;99.90;;;;;;5056652;28;20032;-73
2023/09/02 08:20:17;;;;;;;3.65;2.30;;;20.20;99.90;;;;;;5046978;28;20032;-73
2023/09/02 08:22:43;;;;;;;4.13;2.88;;;20.30;99.90;;;;;;5041152;28;20021;-72
2023/09/02 08:25:10;;;;;;;4.00;2.67;;;20.30;99.90;;;;;;5040939;28;20159;-72
2023/09/02 08:27:35;;;;;;;2.58;2.35;;;20.40;99.90;;;;;;5043365;28;20033;-73
2023/09/02 08:30:02;;;;;;;4.18;2.45;;;20.50;99.90;;;;;;5042109;28;20032;-73
2023/09/02 08:32:32;;;;;;;2.92;2.63;;;20.40;99.90;;;;;;5041934;28;20058;-73
2023/09/02 08:34:57;;;;;;;2.25;1.95;;;20.40;99.90;;;;;;5041610;28;20048;-74
2023/09/02 08:37:23;;;;;;;4.63;2.47;;;20.40;99.90;;;;;;5042742;28;20484;-73
2023/09/02 08:39:51;;;;;;;3.55;2.05;;;20.40;99.90;;;;;;5041443;28;21116;-73
2023/09/02 08:42:19;;;;;;;2.10;1.80;;;20.50;99.90;;;;;;5042437;28;20124;-74
2023/09/02 08:44:47;;;;;;;2.00;1.52;;;20.60;99.90;;;;;;5041135;28;20024;-74
2023/09/02 08:47:39;;;;;;;4.22;1.85;;;20.70;99.90;;;;;;5046170;28;20021;-74
2023/09/02 08:50:08;;;;;;;2.47;2.17;;;21.00;99.90;;;;;;5024954;28;20235;-75
2023/09/02 08:52:34;;;;;;;4.53;3.03;;;21.00;99.90;;;;;;5038644;28;20086;-74
2023/09/02 08:55:01;;;;;;;2.38;2.00;;;21.10;99.90;;;;;;5040496;28;20036;-73
2023/09/02 08:57:28;;;;;;;10.95;8.27;;;21.20;99.90;;;;;;5040740;28;20049;-74
2023/09/02 08:59:54;;;;;;;9.13;7.03;;;21.30;99.90;;;;;;5041500;28;20069;-73
2023/09/02 09:02:20;;;;;;;2.22;1.50;;;21.60;99.90;;;;;;5041994;28;20082;-73
2023/09/02 09:04:50;;;;;;;5.40;2.22;;;21.70;99.90;;;;;;5042229;28;20031;-73
2023/09/02 09:07:17;;;;;;;4.90;3.97;;;21.80;99.70;;;;;;5041057;28;20029;-74
2023/09/02 09:09:43;;;;;;;1.83;1.58;;;21.90;99.90;;;;;;5040831;28;20510;-73
2023/09/02 09:12:11;;;;;;;2.78;1.67;;;21.80;99.90;;;;;;5042963;28;20020;-74
2023/09/02 09:14:40;;;;;;;4.80;3.08;;;21.80;99.90;;;;;;5042642;28;20032;-74
2023/09/02 09:17:07;;;;;;;2.33;2.05;;;21.80;99.80;;;;;;5041866;28;20183;-74
2023/09/02 09:19:33;;;;;;;1.88;1.73;;;21.80;99.90;;;;;;5042197;28;20021;-73
2023/09/02 09:22:01;;;;;;;4.03;1.75;;;21.80;99.90;;;;;;5041951;28;20025;-73
2023/09/02 09:24:28;;;;;;;5.82;1.73;;;21.90;99.70;;;;;;5041906;28;20035;-74
2023/09/02 09:26:54;;;;;;;2.05;1.50;;;21.80;99.40;;;;;;5042063;28;20048;-74
2023/09/02 09:29:22;;;;;;;2.38;1.92;;;21.70;99.60;;;;;;5042562;28;20047;-73
2023/09/02 09:31:51;;;;;;;2.67;1.65;;;21.80;99.50;;;;;;5045367;28;20749;-73
2023/09/02 09:34:16;;;;;;;2.03;1.40;;;21.70;99.30;;;;;;5041486;28;20029;-75
2023/09/02 09:36:43;;;;;;;4.03;2.17;;;21.70;99.30;;;;;;5042385;28;20039;-73
2023/09/02 09:39:09;;;;;;;3.65;1.63;;;21.70;99.40;;;;;;5040882;28;20037;-73
2023/09/02 09:41:43;;;;;;;2.72;1.95;;;21.80;99.10;;;;;;5041464;28;20045;-74
2023/09/02 09:44:14;;;;;;;3.88;2.10;;;21.70;98.70;;;;;;5041798;28;20108;-72
2023/09/02 09:46:43;;;;;;;3.58;2.58;;;21.70;99.20;;;;;;5042568;28;20257;-73
2023/09/02 09:49:20;;;;;;;5.80;3.05;;;21.80;99.10;;;;;;5041368;28;20043;-73
2023/09/02 09:51:45;;;;;;;4.65;2.45;;;22.00;98.90;;;;;;5043127;28;20086;-73
2023/09/02 09:54:11;;;;;;;3.53;3.03;;;22.10;99.00;;;;;;5041753;28;20025;-73
2023/09/02 09:56:45;;;;;;;7.90;2.95;;;22.40;99.00;;;;;;5034967;28;20090;-74
2023/09/02 09:59:10;;;;;;;6.15;5.15;;;22.60;98.70;;;;;;5042234;28;20483;-73
2023/09/02 10:01:37;;;;;;;4.95;3.17;;;22.70;98.80;;;;;;5039460;28;20033;-74
2023/09/02 10:04:08;;;;;;;3.42;2.95;;;22.70;98.60;;;;;;5041939;28;20025;-74
2023/09/02 10:06:37;;;;;;;4.60;2.47;;;22.90;98.20;;;;;;5041367;28;20156;-74
2023/09/02 10:09:03;;;;;;;2.50;2.08;;;23.00;97.00;;;;;;5038542;28;20099;-75
2023/09/02 10:11:29;;;;;;;5.18;2.67;;;23.00;97.40;;;;;;5038618;28;20051;-76
2023/09/02 10:13:57;;;;;;;2.80;1.98;;;23.00;97.20;;;;;;5042203;28;20033;-76
2023/09/02 10:16:24;;;;;;;5.57;3.42;;;22.90;97.40;;;;;;5049127;28;20021;-74
2023/09/02 10:18:51;;;;;;;3.45;3.10;;;22.90;97.50;;;;;;5048813;28;20528;-74
2023/09/02 10:21:17;;;;;;;3.17;2.90;;;23.00;97.30;;;;;;5050772;28;20047;-73
2023/09/02 10:23:49;;;;;;;3.33;3.03;;;22.90;97.10;;;;;;5045766;28;20025;-74
2023/09/02 10:26:32;;;;;;;3.00;2.70;;;22.70;96.70;;;;;;5040594;28;20029;-74
2023/09/02 10:29:00;;;;;;;5.63;3.03;;;22.60;97.20;;;;;;5040890;28;20028;-74
2023/09/02 10:31:32;;;;;;;3.45;3.15;;;22.60;96.90;;;;;;5039728;28;20116;-74
2023/09/02 10:34:09;;;;;;;4.07;3.67;;;22.40;97.30;;;;;;5040183;28;20060;-75
2023/09/02 10:36:41;;;;;;;3.92;2.75;;;22.50;97.60;;;;;;5041938;28;20044;-75
2023/09/02 10:39:13;;;;;;;4.53;3.50;;;22.60;97.50;;;;;;5040279;28;20369;-74
2023/09/02 10:41:39;;;;;;;3.33;2.47;;;22.80;97.50;;;;;;5041901;28;20115;-74
2023/09/02 10:44:05;;;;;;;2.72;2.53;;;22.90;97.00;;;;;;5041712;28;20021;-75
2023/09/02 10:46:32;;;;;;;4.00;2.92;;;22.90;97.20;;;;;;5038412;28;20418;-76
2023/09/02 10:48:59;;;;;;;3.92;3.63;;;22.90;97.00;;;;;;5041722;28;20056;-74
2023/09/02 10:51:25;;;;;;;4.68;3.50;;;22.90;97.00;;;;;;5039238;28;20032;-76
2023/09/02 10:53:50;;;;;;;3.38;3.08;;;22.70;97.40;;;;;;5040012;28;20442;-75
2023/09/02 10:56:33;;;;;;;6.07;4.75;;;22.60;97.40;;;;;;5040600;28;20031;-74
2023/09/02 10:59:03;;;;;;;4.00;3.65;;;22.60;97.50;;;;;;5038938;28;20056;-75
2023/09/02 11:01:44;;;;;;;3.45;3.17;;;22.50;97.50;;;;;;5039855;28;20173;-75
2023/09/02 11:04:10;;;;;;;3.35;2.55;;;22.60;97.50;;;;;;5039663;28;20475;-74
2023/09/02 11:06:36;;;;;;;2.17;2.00;;;22.50;97.10;;;;;;5037719;28;20162;-74
2023/09/02 11:09:01;;;;;;;2.22;1.95;;;22.30;97.40;;;;;;5038851;28;20388;-75
2023/09/02 11:12:06;;;;;;;2.20;1.77;;;22.40;97.70;;;;;;5040799;28;20028;-77
2023/09/02 11:14:32;;;;;;;3.28;2.63;;;22.60;97.60;;;;;;5040531;28;20082;-75
2023/09/02 11:17:28;;;;;;;2.92;2.60;;;22.70;97.10;;;;;;5038311;28;20108;-74
2023/09/02 11:19:58;;;;;;;5.82;1.92;;;22.70;96.90;;;;;;5039856;28;20112;-73
2023/09/02 11:22:50;;;;;;;1.73;1.35;;;22.70;96.90;;;;;;5038546;28;20086;-73
2023/09/02 11:25:38;;;;;;;5.05;2.25;;;22.80;96.80;;;;;;5038727;28;20414;-73
2023/09/02 11:28:18;;;;;;;3.53;2.17;;;23.00;97.00;;;;;;5040125;28;20368;-74
2023/09/02 11:31:13;;;;;;;3.78;1.02;;;23.30;96.80;;;;;;5038040;28;20025;-76
2023/09/02 11:33:40;;;;;;;1.63;1.17;;;23.60;96.20;;;;;;5040297;28;20052;-74
2023/09/02 11:36:10;;;;;;;10.85;1.73;;;23.90;95.20;;;;;;5038107;28;20033;-74
2023/09/02 11:38:36;;;;;;;2.58;1.05;;;24.00;95.60;;;;;;5039035;28;20029;-73
2023/09/02 11:41:02;;;;;;;4.43;0.90;;;24.10;95.30;;;;;;5040369;28;20498;-75
2023/09/02 11:43:30;;;;;;;2.67;0.90;;;24.20;95.30;;;;;;5040121;28;20632;-74
2023/09/02 11:45:57;;;;;;;3.67;1.17;;;24.30;95.00;;;;;;5039812;28;20316;-74
2023/09/02 11:48:27;;;;;;;8.98;1.23;;;24.30;94.50;;;;;;5039944;28;20351;-74
2023/09/02 11:50:53;;;;;;;3.28;1.48;;;24.20;94.60;;;;;;5040677;28;20100;-74
2023/09/02 11:53:18;;;;;;;1.95;1.42;;;24.30;94.40;;;;;;5038467;28;20037;-74
2023/09/02 11:55:44;;;;;;;3.10;2.03;;;24.20;94.20;;;;;;5038757;28;20604;-75
2023/09/02 11:58:14;;;;;;;2.17;1.27;;;24.20;94.40;;;;;;5038678;28;20033;-75
2023/09/02 12:00:43;;;;;;;2.53;0.90;;;24.10;94.30;;;;;;5041324;28;20096;-75
2023/09/02 12:03:09;;;;;;;1.83;1.17;;;24.20;94.20;;;;;;5043352;28;20032;-75
2023/09/02 12:05:45;;;;;;;1.30;0.80;;;24.20;94.20;;;;;;5043952;28;20037;-75
2023/09/02 12:08:11;;;;;;;1.15;0.73;;;24.20;93.30;;;;;;5026035;28;20566;-76
2023/09/02 12:10:37;;;;;;;2.83;0.95;;;24.30;93.70;;;;;;5043892;28;20033;-76
2023/09/02 12:13:03;;;;;;;2.17;0.95;;;24.40;93.50;;;;;;5042216;28;20468;-76
2023/09/02 12:15:31;;;;;;;0.60;0.60;;;24.70;93.30;;;;;;5043249;28;20027;-76
2023/09/02 12:17:57;;;;;;;3.45;1.35;;;24.80;93.30;;;;;;5051514;28;20029;-77
2023/09/02 12:20:23;;;;;;;1.33;0.60;;;24.70;93.20;;;;;;5056070;28;20016;-76
2023/09/02 12:22:49;;;;;;;0.98;0.82;;;24.60;93.00;;;;;;5051494;28;20021;-76
2023/09/02 12:25:23;;;;;;;2.03;1.05;;;24.50;93.50;;;;;;5045631;28;20032;-75
2023/09/02 12:27:49;;;;;;;1.45;1.02;;;24.70;93.40;;;;;;5042460;28;20028;-75
2023/09/02 12:30:26;;;;;;;3.13;1.00;;;24.50;92.50;;;;;;5043151;28;20029;-74
2023/09/02 12:32:51;;;;;;;1.58;1.00;;;24.30;93.10;;;;;;5043254;28;20451;-75
2023/09/02 12:35:17;;;;;;;2.20;0.80;;;24.20;93.30;;;;;;5041311;28;20021;-75
2023/09/02 12:37:42;;;;;;;2.25;0.90;;;24.20;93.20;;;;;;5042876;28;20025;-75
2023/09/02 12:40:09;;;;;;;2.78;1.10;;;24.20;93.00;;;;;;5046064;28;20112;-76
2023/09/02 12:42:35;;;;;;;1.00;0.75;;;24.20;93.10;;;;;;5042301;28;20036;-75
2023/09/02 12:45:04;;;;;;;1.98;1.77;;;24.10;93.00;;;;;;5042257;28;20098;-75
2023/09/02 12:47:30;;;;;;;1.55;0.95;;;24.10;93.40;;;;;;5042686;28;20025;-75